sensor_id;sensor_type;location;lat;lon;timestamp;P1;durP1;ratioP1;P2;durP2;ratioP2
53925;SDS011;39836;52.754;6.866;2023-04-24T00:00:17;4.15;;;3.30;;
53925;SDS011;39836;52.754;6.866;2023-04-24T00:02:43;4.85;;;3.85;;
53925;SDS011;39836;52.754;6.866;2023-04-24T00:05:12;4.82;;;3.58;;
53925;SDS011;39836;52.754;6.866;2023-04-24T00:07:39;4.53;;;3.58;;
53925;SDS011;39836;52.754;6.866;2023-04-24T00:10:08;5.72;;;4.55;;
53925;SDS011;39836;52.754;6.866;2023-04-24T00:12:35;5.45;;;4.15;;
53925;SDS011;39836;52.754;6.866;2023-04-24T00:15:01;5.47;;;4.00;;
53925;SDS011;39836;52.754;6.866;2023-04-24T00:17:27;5.70;;;4.55;;
53925;SDS011;39836;52.754;6.866;2023-04-24T00:19:53;5.38;;;4.43;;
53925;SDS011;39836;52.754;6.866;2023-04-24T00:22:27;5.88;;;3.95;;
53925;SDS011;39836;52.754;6.866;2023-04-24T00:24:53;6.97;;;4.28;;
53925;SDS011;39836;52.754;6.866;2023-04-24T00:27:19;4.93;;;3.53;;
53925;SDS011;39836;52.754;6.866;2023-04-24T00:29:45;8.32;;;3.28;;
53925;SDS011;39836;52.754;6.866;2023-04-24T00:32:11;4.03;;;3.00;;
53925;SDS011;39836;52.754;6.866;2023-04-24T00:34:37;4.07;;;2.90;;
53925;SDS011;39836;52.754;6.866;2023-04-24T00:37:02;4.45;;;3.13;;
53925;SDS011;39836;52.754;6.866;2023-04-24T00:39:28;3.13;;;2.10;;
53925;SDS011;39836;52.754;6.866;2023-04-24T00:41:54;3.42;;;2.60;;
53925;SDS011;39836;52.754;6.866;2023-04-24T00:44:20;3.25;;;2.65;;
53925;SDS011;39836;52.754;6.866;2023-04-24T00:46:46;3.67;;;2.60;;
53925;SDS011;39836;52.754;6.866;2023-04-24T00:49:16;2.63;;;2.35;;
53925;SDS011;39836;52.754;6.866;2023-04-24T00:51:43;2.95;;;2.20;;
53925;SDS011;39836;52.754;6.866;2023-04-24T00:54:13;3.92;;;2.70;;
53925;SDS011;39836;52.754;6.866;2023-04-24T00:56:39;4.38;;;3.05;;
53925;SDS011;39836;52.754;6.866;2023-04-24T00:59:06;3.13;;;2.63;;
53925;SDS011;39836;52.754;6.866;2023-04-24T01:01:32;4.35;;;3.05;;
53925;SDS011;39836;52.754;6.866;2023-04-24T01:03:58;5.57;;;3.17;;
53925;SDS011;39836;52.754;6.866;2023-04-24T01:06:27;3.83;;;3.15;;
53925;SDS011;39836;52.754;6.866;2023-04-24T01:08:56;6.40;;;3.60;;
53925;SDS011;39836;52.754;6.866;2023-04-24T01:11:24;3.50;;;2.50;;
53925;SDS011;39836;52.754;6.866;2023-04-24T01:13:50;4.05;;;3.35;;
53925;SDS011;39836;52.754;6.866;2023-04-24T01:16:17;3.75;;;3.10;;
53925;SDS011;39836;52.754;6.866;2023-04-24T01:18:45;4.82;;;3.30;;
53925;SDS011;39836;52.754;6.866;2023-04-24T01:21:12;6.10;;;4.00;;
53925;SDS011;39836;52.754;6.866;2023-04-24T01:23:40;4.47;;;3.72;;
53925;SDS011;39836;52.754;6.866;2023-04-24T01:26:05;4.20;;;3.63;;
53925;SDS011;39836;52.754;6.866;2023-04-24T01:28:31;5.13;;;3.55;;
53925;SDS011;39836;52.754;6.866;2023-04-24T01:30:56;5.88;;;3.95;;
53925;SDS011;39836;52.754;6.866;2023-04-24T01:33:23;5.95;;;4.88;;
53925;SDS011;39836;52.754;6.866;2023-04-24T01:35:49;5.32;;;4.45;;
53925;SDS011;39836;52.754;6.866;2023-04-24T01:38:15;5.72;;;5.00;;
53925;SDS011;39836;52.754;6.866;2023-04-24T01:40:41;6.05;;;5.28;;
53925;SDS011;39836;52.754;6.866;2023-04-24T01:43:06;7.07;;;5.75;;
53925;SDS011;39836;52.754;6.866;2023-04-24T01:45:32;8.65;;;6.45;;
53925;SDS011;39836;52.754;6.866;2023-04-24T01:47:58;10.30;;;6.95;;
53925;SDS011;39836;52.754;6.866;2023-04-24T01:50:25;9.05;;;7.05;;
53925;SDS011;39836;52.754;6.866;2023-04-24T01:52:51;13.02;;;8.43;;
53925;SDS011;39836;52.754;6.866;2023-04-24T01:55:16;11.95;;;8.32;;
53925;SDS011;39836;52.754;6.866;2023-04-24T01:57:42;11.65;;;8.02;;
53925;SDS011;39836;52.754;6.866;2023-04-24T02:00:08;11.00;;;8.25;;
53925;SDS011;39836;52.754;6.866;2023-04-24T02:02:37;11.57;;;8.70;;
53925;SDS011;39836;52.754;6.866;2023-04-24T02:05:05;11.02;;;9.45;;
53925;SDS011;39836;52.754;6.866;2023-04-24T02:07:31;11.48;;;7.88;;
53925;SDS011;39836;52.754;6.866;2023-04-24T02:09:57;11.45;;;8.20;;
53925;SDS011;39836;52.754;6.866;2023-04-24T02:12:23;10.70;;;8.23;;
53925;SDS011;39836;52.754;6.866;2023-04-24T02:14:49;8.93;;;7.10;;
53925;SDS011;39836;52.754;6.866;2023-04-24T02:17:15;10.15;;;6.70;;
53925;SDS011;39836;52.754;6.866;2023-04-24T02:19:41;12.13;;;9.13;;
53925;SDS011;39836;52.754;6.866;2023-04-24T02:22:07;8.35;;;5.93;;
53925;SDS011;39836;52.754;6.866;2023-04-24T02:24:33;8.70;;;7.43;;
53925;SDS011;39836;52.754;6.866;2023-04-24T02:26:58;8.45;;;6.18;;
53925;SDS011;39836;52.754;6.866;2023-04-24T02:29:25;8.35;;;6.53;;
53925;SDS011;39836;52.754;6.866;2023-04-24T02:31:50;9.98;;;6.80;;
53925;SDS011;39836;52.754;6.866;2023-04-24T02:34:16;9.77;;;6.75;;
53925;SDS011;39836;52.754;6.866;2023-04-24T02:36:42;8.25;;;7.13;;
53925;SDS011;39836;52.754;6.866;2023-04-24T02:39:07;9.10;;;6.95;;
53925;SDS011;39836;52.754;6.866;2023-04-24T02:41:33;8.35;;;7.15;;
53925;SDS011;39836;52.754;6.866;2023-04-24T02:43:59;8.95;;;6.35;;
53925;SDS011;39836;52.754;6.866;2023-04-24T02:46:25;8.27;;;6.45;;
53925;SDS011;39836;52.754;6.866;2023-04-24T02:48:51;8.90;;;6.40;;
53925;SDS011;39836;52.754;6.866;2023-04-24T02:51:17;9.15;;;5.50;;
53925;SDS011;39836;52.754;6.866;2023-04-24T02:53:42;7.40;;;5.32;;
53925;SDS011;39836;52.754;6.866;2023-04-24T02:56:08;6.60;;;5.45;;
53925;SDS011;39836;52.754;6.866;2023-04-24T02:58:37;6.72;;;5.45;;
53925;SDS011;39836;52.754;6.866;2023-04-24T03:01:03;6.60;;;5.55;;
53925;SDS011;39836;52.754;6.866;2023-04-24T03:03:29;6.50;;;5.15;;
53925;SDS011;39836;52.754;6.866;2023-04-24T03:05:55;6.38;;;5.28;;
53925;SDS011;39836;52.754;6.866;2023-04-24T03:08:22;6.55;;;5.43;;
53925;SDS011;39836;52.754;6.866;2023-04-24T03:10:48;6.75;;;5.65;;
53925;SDS011;39836;52.754;6.866;2023-04-24T03:13:13;7.78;;;6.10;;
53925;SDS011;39836;52.754;6.866;2023-04-24T03:15:41;5.95;;;5.07;;
53925;SDS011;39836;52.754;6.866;2023-04-24T03:18:06;7.63;;;5.97;;
53925;SDS011;39836;52.754;6.866;2023-04-24T03:20:32;8.00;;;5.68;;
53925;SDS011;39836;52.754;6.866;2023-04-24T03:22:58;6.97;;;5.90;;
53925;SDS011;39836;52.754;6.866;2023-04-24T03:25:23;7.13;;;6.10;;
53925;SDS011;39836;52.754;6.866;2023-04-24T03:27:49;8.82;;;6.13;;
53925;SDS011;39836;52.754;6.866;2023-04-24T03:30:14;7.90;;;6.13;;
53925;SDS011;39836;52.754;6.866;2023-04-24T03:32:40;6.95;;;6.25;;
53925;SDS011;39836;52.754;6.866;2023-04-24T03:35:06;9.00;;;6.93;;
53925;SDS011;39836;52.754;6.866;2023-04-24T03:37:33;10.30;;;7.57;;
53925;SDS011;39836;52.754;6.866;2023-04-24T03:39:59;8.98;;;7.35;;
53925;SDS011;39836;52.754;6.866;2023-04-24T03:42:25;8.45;;;7.22;;
53925;SDS011;39836;52.754;6.866;2023-04-24T03:44:51;10.05;;;7.30;;
53925;SDS011;39836;52.754;6.866;2023-04-24T03:47:16;9.82;;;7.13;;
53925;SDS011;39836;52.754;6.866;2023-04-24T03:49:42;8.50;;;7.43;;
53925;SDS011;39836;52.754;6.866;2023-04-24T03:52:07;9.15;;;6.60;;
53925;SDS011;39836;52.754;6.866;2023-04-24T03:54:33;8.48;;;7.00;;
53925;SDS011;39836;52.754;6.866;2023-04-24T03:56:59;10.32;;;7.10;;
53925;SDS011;39836;52.754;6.866;2023-04-24T03:59:25;9.05;;;7.43;;
53925;SDS011;39836;52.754;6.866;2023-04-24T04:01:50;8.38;;;6.93;;
53925;SDS011;39836;52.754;6.866;2023-04-24T04:04:16;7.43;;;5.97;;
53925;SDS011;39836;52.754;6.866;2023-04-24T04:06:42;8.32;;;6.55;;
53925;SDS011;39836;52.754;6.866;2023-04-24T04:09:09;7.25;;;5.97;;
53925;SDS011;39836;52.754;6.866;2023-04-24T04:11:35;8.30;;;6.60;;
53925;SDS011;39836;52.754;6.866;2023-04-24T04:14:01;9.13;;;6.60;;
53925;SDS011;39836;52.754;6.866;2023-04-24T04:16:26;8.80;;;7.28;;
53925;SDS011;39836;52.754;6.866;2023-04-24T04:18:52;8.90;;;7.60;;
53925;SDS011;39836;52.754;6.866;2023-04-24T04:21:18;10.57;;;7.82;;
53925;SDS011;39836;52.754;6.866;2023-04-24T04:23:43;10.07;;;7.70;;
53925;SDS011;39836;52.754;6.866;2023-04-24T04:26:10;11.68;;;8.55;;
53925;SDS011;39836;52.754;6.866;2023-04-24T04:28:37;10.70;;;8.20;;
53925;SDS011;39836;52.754;6.866;2023-04-24T04:31:04;13.85;;;9.90;;
53925;SDS011;39836;52.754;6.866;2023-04-24T04:33:30;12.90;;;9.98;;
53925;SDS011;39836;52.754;6.866;2023-04-24T04:35:56;9.82;;;7.93;;
53925;SDS011;39836;52.754;6.866;2023-04-24T04:38:22;11.73;;;9.90;;
53925;SDS011;39836;52.754;6.866;2023-04-24T04:40:47;9.55;;;8.02;;
53925;SDS011;39836;52.754;6.866;2023-04-24T04:43:13;11.35;;;9.00;;
53925;SDS011;39836;52.754;6.866;2023-04-24T04:45:41;13.57;;;10.00;;
53925;SDS011;39836;52.754;6.866;2023-04-24T04:48:08;12.00;;;9.57;;
53925;SDS011;39836;52.754;6.866;2023-04-24T04:50:35;12.88;;;9.90;;
53925;SDS011;39836;52.754;6.866;2023-04-24T04:53:00;11.18;;;9.13;;
53925;SDS011;39836;52.754;6.866;2023-04-24T04:55:26;11.02;;;8.85;;
53925;SDS011;39836;52.754;6.866;2023-04-24T04:57:52;11.70;;;9.50;;
53925;SDS011;39836;52.754;6.866;2023-04-24T05:00:18;11.27;;;8.77;;
53925;SDS011;39836;52.754;6.866;2023-04-24T05:02:44;11.60;;;9.43;;
53925;SDS011;39836;52.754;6.866;2023-04-24T05:05:10;11.32;;;9.05;;
53925;SDS011;39836;52.754;6.866;2023-04-24T05:07:36;11.23;;;8.63;;
53925;SDS011;39836;52.754;6.866;2023-04-24T05:10:02;12.98;;;9.75;;
53925;SDS011;39836;52.754;6.866;2023-04-24T05:12:28;11.02;;;9.00;;
53925;SDS011;39836;52.754;6.866;2023-04-24T05:14:53;10.25;;;8.35;;
53925;SDS011;39836;52.754;6.866;2023-04-24T05:17:19;12.73;;;10.90;;
53925;SDS011;39836;52.754;6.866;2023-04-24T05:19:45;12.85;;;10.63;;
53925;SDS011;39836;52.754;6.866;2023-04-24T05:22:11;10.15;;;7.97;;
53925;SDS011;39836;52.754;6.866;2023-04-24T05:24:37;11.00;;;8.65;;
53925;SDS011;39836;52.754;6.866;2023-04-24T05:27:03;11.63;;;7.57;;
53925;SDS011;39836;52.754;6.866;2023-04-24T05:29:32;8.48;;;6.72;;
53925;SDS011;39836;52.754;6.866;2023-04-24T05:31:58;8.20;;;6.03;;
53925;SDS011;39836;52.754;6.866;2023-04-24T05:34:24;7.10;;;5.93;;
53925;SDS011;39836;52.754;6.866;2023-04-24T05:36:50;7.53;;;5.68;;
53925;SDS011;39836;52.754;6.866;2023-04-24T05:39:16;5.47;;;3.90;;
53925;SDS011;39836;52.754;6.866;2023-04-24T05:41:41;6.72;;;4.93;;
53925;SDS011;39836;52.754;6.866;2023-04-24T05:44:08;6.28;;;4.60;;
53925;SDS011;39836;52.754;6.866;2023-04-24T05:46:33;5.55;;;4.03;;
53925;SDS011;39836;52.754;6.866;2023-04-24T05:48:59;6.70;;;5.15;;
53925;SDS011;39836;52.754;6.866;2023-04-24T05:51:25;8.05;;;5.30;;
53925;SDS011;39836;52.754;6.866;2023-04-24T05:53:51;8.02;;;6.35;;
53925;SDS011;39836;52.754;6.866;2023-04-24T05:56:16;9.45;;;6.00;;
53925;SDS011;39836;52.754;6.866;2023-04-24T05:58:43;6.93;;;5.72;;
53925;SDS011;39836;52.754;6.866;2023-04-24T06:01:10;8.82;;;5.75;;
53925;SDS011;39836;52.754;6.866;2023-04-24T06:03:35;6.85;;;5.30;;
53925;SDS011;39836;52.754;6.866;2023-04-24T06:06:01;6.72;;;5.35;;
53925;SDS011;39836;52.754;6.866;2023-04-24T06:08:27;6.97;;;4.10;;
53925;SDS011;39836;52.754;6.866;2023-04-24T06:10:52;5.57;;;3.92;;
53925;SDS011;39836;52.754;6.866;2023-04-24T06:13:18;5.35;;;4.18;;
53925;SDS011;39836;52.754;6.866;2023-04-24T06:15:44;6.00;;;4.18;;
53925;SDS011;39836;52.754;6.866;2023-04-24T06:18:10;4.00;;;3.38;;
53925;SDS011;39836;52.754;6.866;2023-04-24T06:20:36;7.15;;;5.32;;
53925;SDS011;39836;52.754;6.866;2023-04-24T06:23:01;5.47;;;3.97;;
53925;SDS011;39836;52.754;6.866;2023-04-24T06:25:27;5.85;;;4.18;;
53925;SDS011;39836;52.754;6.866;2023-04-24T06:27:53;3.75;;;2.83;;
53925;SDS011;39836;52.754;6.866;2023-04-24T06:30:19;3.60;;;2.95;;
53925;SDS011;39836;52.754;6.866;2023-04-24T06:32:45;4.53;;;3.60;;
53925;SDS011;39836;52.754;6.866;2023-04-24T06:35:11;5.03;;;3.95;;
53925;SDS011;39836;52.754;6.866;2023-04-24T06:37:38;5.75;;;4.10;;
53925;SDS011;39836;52.754;6.866;2023-04-24T06:40:07;5.35;;;4.00;;
53925;SDS011;39836;52.754;6.866;2023-04-24T06:42:33;7.72;;;4.47;;
53925;SDS011;39836;52.754;6.866;2023-04-24T06:45:00;6.70;;;4.72;;
53925;SDS011;39836;52.754;6.866;2023-04-24T06:47:26;5.25;;;4.07;;
53925;SDS011;39836;52.754;6.866;2023-04-24T06:49:51;6.68;;;4.70;;
53925;SDS011;39836;52.754;6.866;2023-04-24T06:52:18;6.93;;;4.90;;
53925;SDS011;39836;52.754;6.866;2023-04-24T06:54:43;7.68;;;5.32;;
53925;SDS011;39836;52.754;6.866;2023-04-24T06:57:09;6.93;;;4.70;;
53925;SDS011;39836;52.754;6.866;2023-04-24T06:59:35;7.78;;;5.30;;
53925;SDS011;39836;52.754;6.866;2023-04-24T07:02:01;7.22;;;4.22;;
53925;SDS011;39836;52.754;6.866;2023-04-24T07:04:28;11.70;;;4.80;;
53925;SDS011;39836;52.754;6.866;2023-04-24T07:06:54;8.52;;;4.78;;
53925;SDS011;39836;52.754;6.866;2023-04-24T07:09:21;6.95;;;4.40;;
53925;SDS011;39836;52.754;6.866;2023-04-24T07:11:49;8.68;;;5.00;;
53925;SDS011;39836;52.754;6.866;2023-04-24T07:14:15;8.70;;;4.90;;
53925;SDS011;39836;52.754;6.866;2023-04-24T07:16:41;10.10;;;5.28;;
53925;SDS011;39836;52.754;6.866;2023-04-24T07:19:07;7.80;;;4.72;;
53925;SDS011;39836;52.754;6.866;2023-04-24T07:21:33;8.30;;;5.28;;
53925;SDS011;39836;52.754;6.866;2023-04-24T07:23:59;5.35;;;3.22;;
53925;SDS011;39836;52.754;6.866;2023-04-24T07:26:25;6.93;;;4.78;;
53925;SDS011;39836;52.754;6.866;2023-04-24T07:28:52;8.52;;;5.22;;
53925;SDS011;39836;52.754;6.866;2023-04-24T07:31:18;8.57;;;4.13;;
53925;SDS011;39836;52.754;6.866;2023-04-24T07:33:44;6.65;;;3.40;;
53925;SDS011;39836;52.754;6.866;2023-04-24T07:36:10;8.68;;;3.83;;
53925;SDS011;39836;52.754;6.866;2023-04-24T07:38:41;10.88;;;4.38;;
53925;SDS011;39836;52.754;6.866;2023-04-24T07:41:07;6.93;;;4.30;;
53925;SDS011;39836;52.754;6.866;2023-04-24T07:43:33;8.68;;;3.83;;
53925;SDS011;39836;52.754;6.866;2023-04-24T07:45:59;7.72;;;4.43;;
53925;SDS011;39836;52.754;6.866;2023-04-24T07:48:24;13.32;;;5.53;;
53925;SDS011;39836;52.754;6.866;2023-04-24T07:50:51;12.63;;;5.90;;
53925;SDS011;39836;52.754;6.866;2023-04-24T07:53:17;15.82;;;6.22;;
53925;SDS011;39836;52.754;6.866;2023-04-24T07:55:43;13.57;;;6.22;;
53925;SDS011;39836;52.754;6.866;2023-04-24T07:58:09;12.13;;;7.00;;
53925;SDS011;39836;52.754;6.866;2023-04-24T08:00:34;20.65;;;7.20;;
53925;SDS011;39836;52.754;6.866;2023-04-24T08:03:00;15.82;;;7.28;;
53925;SDS011;39836;52.754;6.866;2023-04-24T08:05:26;11.35;;;7.05;;
53925;SDS011;39836;52.754;6.866;2023-04-24T08:07:53;11.77;;;7.60;;
53925;SDS011;39836;52.754;6.866;2023-04-24T08:10:20;13.90;;;7.90;;
53925;SDS011;39836;52.754;6.866;2023-04-24T08:12:49;9.73;;;6.05;;
53925;SDS011;39836;52.754;6.866;2023-04-24T08:15:15;12.52;;;7.63;;
53925;SDS011;39836;52.754;6.866;2023-04-24T08:17:41;12.50;;;6.45;;
53925;SDS011;39836;52.754;6.866;2023-04-24T08:20:07;13.05;;;7.07;;
53925;SDS011;39836;52.754;6.866;2023-04-24T08:22:38;11.75;;;6.80;;
53925;SDS011;39836;52.754;6.866;2023-04-24T08:25:05;12.10;;;7.05;;
53925;SDS011;39836;52.754;6.866;2023-04-24T08:27:31;17.20;;;7.22;;
53925;SDS011;39836;52.754;6.866;2023-04-24T08:29:57;11.15;;;5.55;;
53925;SDS011;39836;52.754;6.866;2023-04-24T08:32:24;12.45;;;5.32;;
53925;SDS011;39836;52.754;6.866;2023-04-24T08:34:53;6.72;;;4.03;;
53925;SDS011;39836;52.754;6.866;2023-04-24T08:37:21;8.30;;;3.28;;
53925;SDS011;39836;52.754;6.866;2023-04-24T08:39:47;11.32;;;4.85;;
53925;SDS011;39836;52.754;6.866;2023-04-24T08:42:13;7.70;;;4.03;;
53925;SDS011;39836;52.754;6.866;2023-04-24T08:44:41;7.55;;;4.82;;
53925;SDS011;39836;52.754;6.866;2023-04-24T08:47:07;6.63;;;4.63;;
53925;SDS011;39836;52.754;6.866;2023-04-24T08:49:33;6.85;;;4.63;;
53925;SDS011;39836;52.754;6.866;2023-04-24T08:52:02;10.45;;;5.00;;
53925;SDS011;39836;52.754;6.866;2023-04-24T08:54:28;8.05;;;4.15;;
53925;SDS011;39836;52.754;6.866;2023-04-24T08:56:56;11.35;;;5.18;;
53925;SDS011;39836;52.754;6.866;2023-04-24T08:59:26;7.18;;;4.32;;
53925;SDS011;39836;52.754;6.866;2023-04-24T09:01:52;14.75;;;5.18;;
53925;SDS011;39836;52.754;6.866;2023-04-24T09:04:19;15.43;;;6.80;;
53925;SDS011;39836;52.754;6.866;2023-04-24T09:06:48;15.27;;;8.23;;
53925;SDS011;39836;52.754;6.866;2023-04-24T09:09:14;10.93;;;6.18;;
53925;SDS011;39836;52.754;6.866;2023-04-24T09:11:43;23.00;;;11.20;;
53925;SDS011;39836;52.754;6.866;2023-04-24T09:14:09;19.70;;;10.65;;
53925;SDS011;39836;52.754;6.866;2023-04-24T09:16:35;23.85;;;12.48;;
53925;SDS011;39836;52.754;6.866;2023-04-24T09:19:00;19.27;;;10.50;;
53925;SDS011;39836;52.754;6.866;2023-04-24T09:21:31;13.77;;;7.43;;
53925;SDS011;39836;52.754;6.866;2023-04-24T09:24:03;22.85;;;12.30;;
53925;SDS011;39836;52.754;6.866;2023-04-24T09:26:34;15.90;;;9.40;;
53925;SDS011;39836;52.754;6.866;2023-04-24T09:29:00;21.73;;;11.07;;
53925;SDS011;39836;52.754;6.866;2023-04-24T09:31:28;22.77;;;11.70;;
53925;SDS011;39836;52.754;6.866;2023-04-24T09:33:55;24.38;;;13.52;;
53925;SDS011;39836;52.754;6.866;2023-04-24T09:36:41;25.48;;;14.35;;
53925;SDS011;39836;52.754;6.866;2023-04-24T09:39:12;15.50;;;9.68;;
53925;SDS011;39836;52.754;6.866;2023-04-24T09:44:17;34.38;;;16.35;;
53925;SDS011;39836;52.754;6.866;2023-04-24T09:46:53;26.95;;;13.60;;
53925;SDS011;39836;52.754;6.866;2023-04-24T09:49:24;24.30;;;13.50;;
53925;SDS011;39836;52.754;6.866;2023-04-24T09:51:51;44.45;;;23.55;;
53925;SDS011;39836;52.754;6.866;2023-04-24T09:54:18;31.42;;;16.73;;
53925;SDS011;39836;52.754;6.866;2023-04-24T09:56:47;30.52;;;17.02;;
53925;SDS011;39836;52.754;6.866;2023-04-24T09:59:15;36.25;;;20.95;;
53925;SDS011;39836;52.754;6.866;2023-04-24T10:01:42;39.63;;;20.17;;
53925;SDS011;39836;52.754;6.866;2023-04-24T10:04:16;29.95;;;15.60;;
53925;SDS011;39836;52.754;6.866;2023-04-24T10:06:43;28.10;;;15.77;;
53925;SDS011;39836;52.754;6.866;2023-04-24T10:09:09;37.42;;;23.35;;
53925;SDS011;39836;52.754;6.866;2023-04-24T10:11:37;24.55;;;12.55;;
53925;SDS011;39836;52.754;6.866;2023-04-24T10:14:06;23.95;;;12.93;;
53925;SDS011;39836;52.754;6.866;2023-04-24T10:16:32;32.45;;;18.95;;
53925;SDS011;39836;52.754;6.866;2023-04-24T10:18:58;29.23;;;17.55;;
53925;SDS011;39836;52.754;6.866;2023-04-24T10:21:25;32.03;;;20.75;;
53925;SDS011;39836;52.754;6.866;2023-04-24T10:23:52;43.63;;;21.23;;
53925;SDS011;39836;52.754;6.866;2023-04-24T10:26:18;26.42;;;16.25;;
53925;SDS011;39836;52.754;6.866;2023-04-24T10:28:45;41.55;;;19.60;;
53925;SDS011;39836;52.754;6.866;2023-04-24T10:31:12;38.00;;;20.88;;
53925;SDS011;39836;52.754;6.866;2023-04-24T10:33:39;33.78;;;20.48;;
53925;SDS011;39836;52.754;6.866;2023-04-24T10:36:07;35.05;;;20.13;;
53925;SDS011;39836;52.754;6.866;2023-04-24T10:38:35;23.50;;;14.48;;
53925;SDS011;39836;52.754;6.866;2023-04-24T10:41:07;40.10;;;18.77;;
53925;SDS011;39836;52.754;6.866;2023-04-24T10:43:41;34.15;;;17.27;;
53925;SDS011;39836;52.754;6.866;2023-04-24T10:46:07;28.90;;;18.50;;
53925;SDS011;39836;52.754;6.866;2023-04-24T10:48:35;30.70;;;17.52;;
53925;SDS011;39836;52.754;6.866;2023-04-24T10:51:10;28.40;;;16.55;;
53925;SDS011;39836;52.754;6.866;2023-04-24T10:53:37;24.25;;;15.25;;
53925;SDS011;39836;52.754;6.866;2023-04-24T10:56:03;28.10;;;13.80;;
53925;SDS011;39836;52.754;6.866;2023-04-24T11:01:06;21.85;;;9.57;;
53925;SDS011;39836;52.754;6.866;2023-04-24T11:03:33;24.80;;;10.70;;
53925;SDS011;39836;52.754;6.866;2023-04-24T11:06:03;18.25;;;7.38;;
53925;SDS011;39836;52.754;6.866;2023-04-24T11:08:46;18.88;;;7.43;;
53925;SDS011;39836;52.754;6.866;2023-04-24T11:11:15;15.80;;;7.20;;
53925;SDS011;39836;52.754;6.866;2023-04-24T11:19:24;16.58;;;7.55;;
53925;SDS011;39836;52.754;6.866;2023-04-24T11:21:55;21.48;;;7.95;;
53925;SDS011;39836;52.754;6.866;2023-04-24T11:34:48;13.38;;;5.07;;
53925;SDS011;39836;52.754;6.866;2023-04-24T11:37:15;21.05;;;6.25;;
53925;SDS011;39836;52.754;6.866;2023-04-24T11:39:41;22.80;;;5.95;;
53925;SDS011;39836;52.754;6.866;2023-04-24T11:42:08;20.13;;;5.85;;
53925;SDS011;39836;52.754;6.866;2023-04-24T11:44:34;16.73;;;5.70;;
53925;SDS011;39836;52.754;6.866;2023-04-24T11:47:05;19.33;;;5.75;;
53925;SDS011;39836;52.754;6.866;2023-04-24T11:49:36;12.55;;;4.65;;
53925;SDS011;39836;52.754;6.866;2023-04-24T11:52:02;17.38;;;4.70;;
53925;SDS011;39836;52.754;6.866;2023-04-24T11:54:28;11.27;;;3.78;;
53925;SDS011;39836;52.754;6.866;2023-04-24T11:56:55;11.98;;;4.85;;
53925;SDS011;39836;52.754;6.866;2023-04-24T11:59:21;16.10;;;3.67;;
53925;SDS011;39836;52.754;6.866;2023-04-24T12:01:47;14.18;;;4.43;;
53925;SDS011;39836;52.754;6.866;2023-04-24T12:04:17;17.23;;;3.58;;
53925;SDS011;39836;52.754;6.866;2023-04-24T12:06:59;12.13;;;3.78;;
53925;SDS011;39836;52.754;6.866;2023-04-24T12:09:28;16.20;;;4.25;;
53925;SDS011;39836;52.754;6.866;2023-04-24T12:12:05;10.98;;;3.15;;
53925;SDS011;39836;52.754;6.866;2023-04-24T12:14:31;12.13;;;3.50;;
53925;SDS011;39836;52.754;6.866;2023-04-24T12:16:57;18.58;;;3.63;;
53925;SDS011;39836;52.754;6.866;2023-04-24T12:19:23;12.82;;;3.30;;
53925;SDS011;39836;52.754;6.866;2023-04-24T12:22:02;13.48;;;3.40;;
53925;SDS011;39836;52.754;6.866;2023-04-24T12:24:30;19.35;;;4.35;;
53925;SDS011;39836;52.754;6.866;2023-04-24T12:26:56;13.45;;;3.53;;
53925;SDS011;39836;52.754;6.866;2023-04-24T12:29:23;13.50;;;3.53;;
53925;SDS011;39836;52.754;6.866;2023-04-24T12:31:50;11.57;;;4.22;;
53925;SDS011;39836;52.754;6.866;2023-04-24T12:34:23;14.75;;;3.30;;
53925;SDS011;39836;52.754;6.866;2023-04-24T12:36:50;8.13;;;3.10;;
53925;SDS011;39836;52.754;6.866;2023-04-24T12:39:20;9.68;;;2.70;;
53925;SDS011;39836;52.754;6.866;2023-04-24T12:41:58;11.20;;;3.75;;
53925;SDS011;39836;52.754;6.866;2023-04-24T12:44:34;12.15;;;3.50;;
53925;SDS011;39836;52.754;6.866;2023-04-24T12:47:00;14.88;;;3.67;;
53925;SDS011;39836;52.754;6.866;2023-04-24T12:49:26;9.68;;;3.15;;
53925;SDS011;39836;52.754;6.866;2023-04-24T12:51:53;9.48;;;3.13;;
53925;SDS011;39836;52.754;6.866;2023-04-24T12:54:19;10.95;;;3.45;;
53925;SDS011;39836;52.754;6.866;2023-04-24T12:56:44;11.18;;;3.15;;
53925;SDS011;39836;52.754;6.866;2023-04-24T12:59:10;11.68;;;3.17;;
53925;SDS011;39836;52.754;6.866;2023-04-24T13:01:36;11.02;;;3.55;;
53925;SDS011;39836;52.754;6.866;2023-04-24T13:04:02;5.85;;;2.50;;
53925;SDS011;39836;52.754;6.866;2023-04-24T13:06:27;7.95;;;3.05;;
53925;SDS011;39836;52.754;6.866;2023-04-24T13:08:53;8.38;;;3.15;;
53925;SDS011;39836;52.754;6.866;2023-04-24T13:11:20;7.53;;;2.58;;
53925;SDS011;39836;52.754;6.866;2023-04-24T13:13:47;9.23;;;2.50;;
53925;SDS011;39836;52.754;6.866;2023-04-24T13:16:12;7.90;;;2.15;;
53925;SDS011;39836;52.754;6.866;2023-04-24T13:18:38;7.75;;;2.30;;
53925;SDS011;39836;52.754;6.866;2023-04-24T13:21:04;5.43;;;2.05;;
53925;SDS011;39836;52.754;6.866;2023-04-24T13:23:30;3.75;;;1.80;;
53925;SDS011;39836;52.754;6.866;2023-04-24T13:25:55;3.55;;;1.80;;
53925;SDS011;39836;52.754;6.866;2023-04-24T13:28:24;9.25;;;2.83;;
53925;SDS011;39836;52.754;6.866;2023-04-24T13:30:50;5.43;;;1.98;;
53925;SDS011;39836;52.754;6.866;2023-04-24T13:33:16;5.85;;;2.28;;
53925;SDS011;39836;52.754;6.866;2023-04-24T13:35:42;6.63;;;2.75;;
53925;SDS011;39836;52.754;6.866;2023-04-24T13:38:07;4.45;;;1.80;;
53925;SDS011;39836;52.754;6.866;2023-04-24T13:40:33;3.10;;;1.73;;
53925;SDS011;39836;52.754;6.866;2023-04-24T13:42:59;6.15;;;1.98;;
53925;SDS011;39836;52.754;6.866;2023-04-24T13:45:25;8.75;;;2.20;;
53925;SDS011;39836;52.754;6.866;2023-04-24T13:47:51;7.60;;;2.72;;
53925;SDS011;39836;52.754;6.866;2023-04-24T13:50:18;8.90;;;2.30;;
53925;SDS011;39836;52.754;6.866;2023-04-24T13:52:45;14.23;;;2.60;;
53925;SDS011;39836;52.754;6.866;2023-04-24T13:55:11;7.30;;;2.60;;
53925;SDS011;39836;52.754;6.866;2023-04-24T13:57:36;11.00;;;2.58;;
53925;SDS011;39836;52.754;6.866;2023-04-24T14:00:02;10.32;;;2.67;;
53925;SDS011;39836;52.754;6.866;2023-04-24T14:02:29;10.48;;;2.38;;
53925;SDS011;39836;52.754;6.866;2023-04-24T14:04:55;12.23;;;4.78;;
53925;SDS011;39836;52.754;6.866;2023-04-24T14:07:21;11.50;;;2.80;;
53925;SDS011;39836;52.754;6.866;2023-04-24T14:09:46;12.00;;;2.30;;
53925;SDS011;39836;52.754;6.866;2023-04-24T14:12:12;8.75;;;2.38;;
53925;SDS011;39836;52.754;6.866;2023-04-24T14:14:39;6.45;;;1.83;;
53925;SDS011;39836;52.754;6.866;2023-04-24T14:17:05;7.30;;;2.13;;
53925;SDS011;39836;52.754;6.866;2023-04-24T14:19:30;5.03;;;2.03;;
53925;SDS011;39836;52.754;6.866;2023-04-24T14:21:56;8.63;;;2.28;;
53925;SDS011;39836;52.754;6.866;2023-04-24T14:24:23;7.60;;;2.40;;
53925;SDS011;39836;52.754;6.866;2023-04-24T14:26:49;7.50;;;2.10;;
53925;SDS011;39836;52.754;6.866;2023-04-24T14:29:14;7.38;;;2.42;;
53925;SDS011;39836;52.754;6.866;2023-04-24T14:31:41;7.95;;;2.40;;
53925;SDS011;39836;52.754;6.866;2023-04-24T14:34:07;6.88;;;2.55;;
53925;SDS011;39836;52.754;6.866;2023-04-24T14:36:33;9.55;;;3.25;;
53925;SDS011;39836;52.754;6.866;2023-04-24T14:38:59;12.65;;;3.30;;
53925;SDS011;39836;52.754;6.866;2023-04-24T14:41:24;19.40;;;3.55;;
53925;SDS011;39836;52.754;6.866;2023-04-24T14:43:50;8.18;;;3.17;;
53925;SDS011;39836;52.754;6.866;2023-04-24T14:46:16;18.58;;;3.92;;
53925;SDS011;39836;52.754;6.866;2023-04-24T14:48:41;16.65;;;3.65;;
53925;SDS011;39836;52.754;6.866;2023-04-24T14:51:07;11.57;;;4.00;;
53925;SDS011;39836;52.754;6.866;2023-04-24T14:53:33;12.45;;;3.60;;
53925;SDS011;39836;52.754;6.866;2023-04-24T14:55:59;18.65;;;3.88;;
53925;SDS011;39836;52.754;6.866;2023-04-24T14:58:25;14.30;;;3.78;;